sensor_id;sensor_type;location;lat;lon;timestamp;temperature;humidity
18091;DHT22;9172;49.948;9.208;2024-02-23T00:02:24;8.40;99.90
18091;DHT22;9172;49.948;9.208;2024-02-23T00:04:53;8.30;99.90
18091;DHT22;9172;49.948;9.208;2024-02-23T00:07:21;8.30;99.90
18091;DHT22;9172;49.948;9.208;2024-02-23T00:09:50;8.30;99.90
18091;DHT22;9172;49.948;9.208;2024-02-23T00:12:18;8.30;99.90
18091;DHT22;9172;49.948;9.208;2024-02-23T00:14:47;8.30;99.90
18091;DHT22;9172;49.948;9.208;2024-02-23T00:17:15;8.30;99.90
18091;DHT22;9172;49.948;9.208;2024-02-23T00:22:22;8.30;99.90
18091;DHT22;9172;49.948;9.208;2024-02-23T00:24:53;8.20;99.90
18091;DHT22;9172;49.948;9.208;2024-02-23T00:27:21;8.20;99.90
18091;DHT22;9172;49.948;9.208;2024-02-23T00:29:50;8.20;99.90
18091;DHT22;9172;49.948;9.208;2024-02-23T00:32:18;8.20;99.90
18091;DHT22;9172;49.948;9.208;2024-02-23T00:34:47;8.10;99.90
18091;DHT22;9172;49.948;9.208;2024-02-23T00:37:15;8.10;99.90
18091;DHT22;9172;49.948;9.208;2024-02-23T00:39:44;8.00;99.90
18091;DHT22;9172;49.948;9.208;2024-02-23T00:42:13;7.90;99.90
18091;DHT22;9172;49.948;9.208;2024-02-23T00:44:41;7.90;99.90
18091;DHT22;9172;49.948;9.208;2024-02-23T00:47:10;7.80;99.90
18091;DHT22;9172;49.948;9.208;2024-02-23T00:49:38;7.80;99.90
18091;DHT22;9172;49.948;9.208;2024-02-23T00:52:07;7.80;99.90
18091;DHT22;9172;49.948;9.208;2024-02-23T00:54:35;7.80;99.90
18091;DHT22;9172;49.948;9.208;2024-02-23T00:57:04;7.80;99.90
18091;DHT22;9172;49.948;9.208;2024-02-23T00:59:33;7.70;99.90
18091;DHT22;9172;49.948;9.208;2024-02-23T01:02:01;7.70;99.90
18091;DHT22;9172;49.948;9.208;2024-02-23T01:04:30;7.70;99.90
18091;DHT22;9172;49.948;9.208;2024-02-23T01:06:59;7.70;99.90
18091;DHT22;9172;49.948;9.208;2024-02-23T01:09:27;7.70;99.90
18091;DHT22;9172;49.948;9.208;2024-02-23T01:11:56;7.70;99.90
18091;DHT22;9172;49.948;9.208;2024-02-23T01:14:24;7.70;99.90
18091;DHT22;9172;49.948;9.208;2024-02-23T01:16:53;7.60;99.90
18091;DHT22;9172;49.948;9.208;2024-02-23T01:19:21;7.60;99.90
18091;DHT22;9172;49.948;9.208;2024-02-23T01:21:51;7.70;99.90
18091;DHT22;9172;49.948;9.208;2024-02-23T01:24:21;7.70;99.90
18091;DHT22;9172;49.948;9.208;2024-02-23T01:26:49;7.60;99.90
18091;DHT22;9172;49.948;9.208;2024-02-23T01:29:18;7.60;99.90
18091;DHT22;9172;49.948;9.208;2024-02-23T01:31:46;7.50;99.90
18091;DHT22;9172;49.948;9.208;2024-02-23T01:34:15;7.50;99.90
18091;DHT22;9172;49.948;9.208;2024-02-23T01:36:43;7.50;99.90
18091;DHT22;9172;49.948;9.208;2024-02-23T01:39:12;7.40;99.90
18091;DHT22;9172;49.948;9.208;2024-02-23T01:41:40;7.40;99.90
18091;DHT22;9172;49.948;9.208;2024-02-23T01:44:11;7.40;99.90
18091;DHT22;9172;49.948;9.208;2024-02-23T01:46:39;7.40;99.90
18091;DHT22;9172;49.948;9.208;2024-02-23T01:49:08;7.30;99.90
18091;DHT22;9172;49.948;9.208;2024-02-23T01:51:37;7.30;99.90
18091;DHT22;9172;49.948;9.208;2024-02-23T01:54:06;7.30;99.90
18091;DHT22;9172;49.948;9.208;2024-02-23T01:56:36;7.30;99.90
18091;DHT22;9172;49.948;9.208;2024-02-23T01:59:07;7.30;99.90
18091;DHT22;9172;49.948;9.208;2024-02-23T02:01:36;7.30;99.90
18091;DHT22;9172;49.948;9.208;2024-02-23T02:04:04;7.20;99.90
18091;DHT22;9172;49.948;9.208;2024-02-23T02:06:33;7.20;99.90
18091;DHT22;9172;49.948;9.208;2024-02-23T02:09:02;7.20;99.90
18091;DHT22;9172;49.948;9.208;2024-02-23T02:11:30;7.20;99.90
18091;DHT22;9172;49.948;9.208;2024-02-23T02:13:59;7.30;99.90
18091;DHT22;9172;49.948;9.208;2024-02-23T02:16:28;7.30;99.90
18091;DHT22;9172;49.948;9.208;2024-02-23T02:18:56;7.20;99.90
18091;DHT22;9172;49.948;9.208;2024-02-23T02:21:25;7.20;99.90
18091;DHT22;9172;49.948;9.208;2024-02-23T02:23:55;7.20;99.90
18091;DHT22;9172;49.948;9.208;2024-02-23T02:26:24;7.20;99.90
18091;DHT22;9172;49.948;9.208;2024-02-23T02:28:52;7.20;99.90
18091;DHT22;9172;49.948;9.208;2024-02-23T02:31:21;7.10;99.90
18091;DHT22;9172;49.948;9.208;2024-02-23T02:33:49;7.10;99.90
18091;DHT22;9172;49.948;9.208;2024-02-23T02:36:18;7.10;99.90
18091;DHT22;9172;49.948;9.208;2024-02-23T02:38:46;7.10;99.90
18091;DHT22;9172;49.948;9.208;2024-02-23T02:43:53;7.00;99.90
18091;DHT22;9172;49.948;9.208;2024-02-23T02:46:22;6.90;99.90
18091;DHT22;9172;49.948;9.208;2024-02-23T02:48:50;6.80;99.90
18091;DHT22;9172;49.948;9.208;2024-02-23T02:51:19;6.80;99.90
18091;DHT22;9172;49.948;9.208;2024-02-23T02:53:48;6.80;99.90
18091;DHT22;9172;49.948;9.208;2024-02-23T02:56:16;6.80;99.90
18091;DHT22;9172;49.948;9.208;2024-02-23T02:58:45;6.70;99.90
18091;DHT22;9172;49.948;9.208;2024-02-23T03:01:13;6.70;99.90
18091;DHT22;9172;49.948;9.208;2024-02-23T03:03:42;6.60;99.90
18091;DHT22;9172;49.948;9.208;2024-02-23T03:06:10;6.60;99.90
18091;DHT22;9172;49.948;9.208;2024-02-23T03:08:39;6.50;99.90
18091;DHT22;9172;49.948;9.208;2024-02-23T03:11:09;6.50;99.90
18091;DHT22;9172;49.948;9.208;2024-02-23T03:13:37;6.40;99.90
18091;DHT22;9172;49.948;9.208;2024-02-23T03:16:06;6.30;99.90
18091;DHT22;9172;49.948;9.208;2024-02-23T03:18:34;6.30;99.90
18091;DHT22;9172;49.948;9.208;2024-02-23T03:21:03;6.30;99.90
18091;DHT22;9172;49.948;9.208;2024-02-23T03:23:32;6.20;99.90
18091;DHT22;9172;49.948;9.208;2024-02-23T03:26:01;6.20;99.90
18091;DHT22;9172;49.948;9.208;2024-02-23T03:28:30;6.20;99.90
18091;DHT22;9172;49.948;9.208;2024-02-23T03:30:59;6.20;99.90
18091;DHT22;9172;49.948;9.208;2024-02-23T03:33:28;6.20;99.90
18091;DHT22;9172;49.948;9.208;2024-02-23T03:35:58;6.20;99.90
18091;DHT22;9172;49.948;9.208;2024-02-23T03:38:27;6.20;99.90
18091;DHT22;9172;49.948;9.208;2024-02-23T03:40:57;6.30;99.90
18091;DHT22;9172;49.948;9.208;2024-02-23T03:43:26;6.30;99.90
18091;DHT22;9172;49.948;9.208;2024-02-23T03:45:54;6.30;99.90
18091;DHT22;9172;49.948;9.208;2024-02-23T03:48:23;6.30;99.90
18091;DHT22;9172;49.948;9.208;2024-02-23T03:50:52;6.30;99.90
18091;DHT22;9172;49.948;9.208;2024-02-23T03:53:21;6.20;99.90
18091;DHT22;9172;49.948;9.208;2024-02-23T03:55:50;6.20;99.90
18091;DHT22;9172;49.948;9.208;2024-02-23T03:58:18;6.30;99.90
18091;DHT22;9172;49.948;9.208;2024-02-23T04:00:47;6.20;99.90
18091;DHT22;9172;49.948;9.208;2024-02-23T04:03:15;6.10;99.90
18091;DHT22;9172;49.948;9.208;2024-02-23T04:05:44;6.00;99.90
18091;DHT22;9172;49.948;9.208;2024-02-23T04:08:12;6.00;99.90
18091;DHT22;9172;49.948;9.208;2024-02-23T04:10:41;5.90;99.90
18091;DHT22;9172;49.948;9.208;2024-02-23T04:13:10;5.90;99.90
18091;DHT22;9172;49.948;9.208;2024-02-23T04:15:40;5.90;99.90
18091;DHT22;9172;49.948;9.208;2024-02-23T04:18:08;5.80;99.90
18091;DHT22;9172;49.948;9.208;2024-02-23T04:20:37;5.80;99.90
18091;DHT22;9172;49.948;9.208;2024-02-23T04:23:05;5.80;99.90
18091;DHT22;9172;49.948;9.208;2024-02-23T04:25:34;5.80;99.90
18091;DHT22;9172;49.948;9.208;2024-02-23T04:28:03;5.80;99.90
18091;DHT22;9172;49.948;9.208;2024-02-23T04:30:31;5.90;99.90
18091;DHT22;9172;49.948;9.208;2024-02-23T04:33:00;5.90;99.90
18091;DHT22;9172;49.948;9.208;2024-02-23T04:35:28;6.00;99.90
18091;DHT22;9172;49.948;9.208;2024-02-23T04:37:57;6.00;99.90
18091;DHT22;9172;49.948;9.208;2024-02-23T04:40:25;8.10;99.90
18091;DHT22;9172;49.948;9.208;2024-02-23T04:42:54;6.10;99.90
18091;DHT22;9172;49.948;9.208;2024-02-23T04:47:58;6.00;99.90
18091;DHT22;9172;49.948;9.208;2024-02-23T04:50:27;6.00;99.90
18091;DHT22;9172;49.948;9.208;2024-02-23T04:52:55;6.00;99.90
18091;DHT22;9172;49.948;9.208;2024-02-23T04:55:24;6.00;99.90
18091;DHT22;9172;49.948;9.208;2024-02-23T04:57:52;6.00;99.90
18091;DHT22;9172;49.948;9.208;2024-02-23T05:00:21;6.00;99.90
18091;DHT22;9172;49.948;9.208;2024-02-23T05:02:50;6.00;99.90
18091;DHT22;9172;49.948;9.208;2024-02-23T05:05:18;6.00;99.90
18091;DHT22;9172;49.948;9.208;2024-02-23T05:07:48;6.00;99.90
18091;DHT22;9172;49.948;9.208;2024-02-23T05:10:18;6.00;99.90
18091;DHT22;9172;49.948;9.208;2024-02-23T05:12:46;6.00;99.90
18091;DHT22;9172;49.948;9.208;2024-02-23T05:15:15;6.00;99.90
18091;DHT22;9172;49.948;9.208;2024-02-23T05:17:44;6.00;99.90
18091;DHT22;9172;49.948;9.208;2024-02-23T05:20:14;6.10;99.90
18091;DHT22;9172;49.948;9.208;2024-02-23T05:22:42;6.10;99.90
18091;DHT22;9172;49.948;9.208;2024-02-23T05:25:11;6.10;99.90
18091;DHT22;9172;49.948;9.208;2024-02-23T05:27:39;6.10;99.90
18091;DHT22;9172;49.948;9.208;2024-02-23T05:30:10;6.10;99.90
18091;DHT22;9172;49.948;9.208;2024-02-23T05:32:38;6.10;99.90
18091;DHT22;9172;49.948;9.208;2024-02-23T05:35:07;6.10;99.90
18091;DHT22;9172;49.948;9.208;2024-02-23T05:37:36;6.00;99.90
18091;DHT22;9172;49.948;9.208;2024-02-23T05:40:06;6.00;99.90
18091;DHT22;9172;49.948;9.208;2024-02-23T05:42:37;6.00;99.90
18091;DHT22;9172;49.948;9.208;2024-02-23T05:45:08;6.00;99.90
18091;DHT22;9172;49.948;9.208;2024-02-23T05:47:37;6.00;99.90
18091;DHT22;9172;49.948;9.208;2024-02-23T05:50:07;6.00;99.90
18091;DHT22;9172;49.948;9.208;2024-02-23T05:52:36;6.00;99.90
18091;DHT22;9172;49.948;9.208;2024-02-23T05:55:05;6.00;99.90
18091;DHT22;9172;49.948;9.208;2024-02-23T05:57:35;6.00;99.90
18091;DHT22;9172;49.948;9.208;2024-02-23T06:00:05;6.00;99.90
18091;DHT22;9172;49.948;9.208;2024-02-23T06:02:34;6.00;99.90
18091;DHT22;9172;49.948;9.208;2024-02-23T06:05:04;6.00;99.90
18091;DHT22;9172;49.948;9.208;2024-02-23T06:07:34;5.80;99.90
18091;DHT22;9172;49.948;9.208;2024-02-23T06:10:05;5.80;99.90
18091;DHT22;9172;49.948;9.208;2024-02-23T06:12:34;5.80;99.90
18091;DHT22;9172;49.948;9.208;2024-02-23T06:15:02;5.90;99.90
18091;DHT22;9172;49.948;9.208;2024-02-23T06:17:31;5.90;99.90
18091;DHT22;9172;49.948;9.208;2024-02-23T06:19:59;5.80;99.90
18091;DHT22;9172;49.948;9.208;2024-02-23T06:22:28;5.80;99.90
18091;DHT22;9172;49.948;9.208;2024-02-23T06:24:56;5.80;99.90
18091;DHT22;9172;49.948;9.208;2024-02-23T06:27:25;5.80;99.90
18091;DHT22;9172;49.948;9.208;2024-02-23T06:29:55;5.80;99.90
18091;DHT22;9172;49.948;9.208;2024-02-23T06:32:23;5.80;99.90
18091;DHT22;9172;49.948;9.208;2024-02-23T06:34:52;5.80;99.90
18091;DHT22;9172;49.948;9.208;2024-02-23T06:37:21;5.80;99.90
18091;DHT22;9172;49.948;9.208;2024-02-23T06:39:49;5.80;99.90
18091;DHT22;9172;49.948;9.208;2024-02-23T06:42:20;5.80;99.90
18091;DHT22;9172;49.948;9.208;2024-02-23T06:44:48;5.80;99.90
18091;DHT22;9172;49.948;9.208;2024-02-23T06:47:17;5.80;99.90
18091;DHT22;9172;49.948;9.208;2024-02-23T06:49:46;5.80;99.90
18091;DHT22;9172;49.948;9.208;2024-02-23T06:52:14;5.80;99.90
18091;DHT22;9172;49.948;9.208;2024-02-23T06:54:43;5.80;99.90
18091;DHT22;9172;49.948;9.208;2024-02-23T06:57:12;5.70;99.90
18091;DHT22;9172;49.948;9.208;2024-02-23T06:59:41;5.70;99.90
18091;DHT22;9172;49.948;9.208;2024-02-23T07:02:09;5.70;99.90
18091;DHT22;9172;49.948;9.208;2024-02-23T07:04:38;5.70;99.90
18091;DHT22;9172;49.948;9.208;2024-02-23T07:07:06;5.70;99.90
18091;DHT22;9172;49.948;9.208;2024-02-23T07:09:35;5.70;99.90
18091;DHT22;9172;49.948;9.208;2024-02-23T07:12:06;5.80;99.90
18091;DHT22;9172;49.948;9.208;2024-02-23T07:14:35;5.80;99.90
18091;DHT22;9172;49.948;9.208;2024-02-23T07:17:03;5.90;99.90
18091;DHT22;9172;49.948;9.208;2024-02-23T07:19:32;5.80;99.90
18091;DHT22;9172;49.948;9.208;2024-02-23T07:22:01;5.90;99.90
18091;DHT22;9172;49.948;9.208;2024-02-23T07:24:30;5.90;99.90
18091;DHT22;9172;49.948;9.208;2024-02-23T07:26:59;5.90;99.90
18091;DHT22;9172;49.948;9.208;2024-02-23T07:29:28;6.00;99.90
18091;DHT22;9172;49.948;9.208;2024-02-23T07:31:58;6.00;99.90
18091;DHT22;9172;49.948;9.208;2024-02-23T07:34:26;6.00;99.90
18091;DHT22;9172;49.948;9.208;2024-02-23T07:36:55;6.00;99.90
18091;DHT22;9172;49.948;9.208;2024-02-23T07:39:23;6.00;99.90
18091;DHT22;9172;49.948;9.208;2024-02-23T07:41:52;6.00;99.90
18091;DHT22;9172;49.948;9.208;2024-02-23T07:44:20;6.00;99.90
18091;DHT22;9172;49.948;9.208;2024-02-23T07:46:49;6.10;99.90
18091;DHT22;9172;49.948;9.208;2024-02-23T07:49:19;6.00;99.90
18091;DHT22;9172;49.948;9.208;2024-02-23T07:51:49;6.00;99.90
18091;DHT22;9172;49.948;9.208;2024-02-23T07:54:18;6.00;99.90
18091;DHT22;9172;49.948;9.208;2024-02-23T07:56:46;6.00;99.90
18091;DHT22;9172;49.948;9.208;2024-02-23T07:59:15;6.00;99.90
18091;DHT22;9172;49.948;9.208;2024-02-23T08:01:43;6.00;99.90
18091;DHT22;9172;49.948;9.208;2024-02-23T08:04:12;6.10;99.90
18091;DHT22;9172;49.948;9.208;2024-02-23T08:06:42;6.10;99.90
18091;DHT22;9172;49.948;9.208;2024-02-23T08:09:10;6.10;99.90
18091;DHT22;9172;49.948;9.208;2024-02-23T08:11:39;6.00;99.90
18091;DHT22;9172;49.948;9.208;2024-02-23T08:14:07;6.00;99.90
18091;DHT22;9172;49.948;9.208;2024-02-23T08:16:36;6.00;99.90
18091;DHT22;9172;49.948;9.208;2024-02-23T08:19:04;6.00;99.90
18091;DHT22;9172;49.948;9.208;2024-02-23T08:21:33;6.10;99.90
18091;DHT22;9172;49.948;9.208;2024-02-23T08:24:02;6.10;99.90
18091;DHT22;9172;49.948;9.208;2024-02-23T08:26:31;6.10;99.90
18091;DHT22;9172;49.948;9.208;2024-02-23T08:29:01;6.10;99.90
18091;DHT22;9172;49.948;9.208;2024-02-23T08:31:30;6.20;99.90
18091;DHT22;9172;49.948;9.208;2024-02-23T08:33:58;6.20;99.90
18091;DHT22;9172;49.948;9.208;2024-02-23T08:36:27;6.20;99.90
18091;DHT22;9172;49.948;9.208;2024-02-23T08:38:56;6.20;99.90
18091;DHT22;9172;49.948;9.208;2024-02-23T08:41:25;6.30;99.90
18091;DHT22;9172;49.948;9.208;2024-02-23T08:43:53;6.40;99.90
18091;DHT22;9172;49.948;9.208;2024-02-23T08:46:22;6.50;99.90
18091;DHT22;9172;49.948;9.208;2024-02-23T08:48:51;6.60;99.90
18091;DHT22;9172;49.948;9.208;2024-02-23T08:51:19;6.70;99.90
18091;DHT22;9172;49.948;9.208;2024-02-23T08:53:48;6.80;99.90
18091;DHT22;9172;49.948;9.208;2024-02-23T08:56:16;6.90;99.90
18091;DHT22;9172;49.948;9.208;2024-02-23T08:58:45;6.90;99.90
18091;DHT22;9172;49.948;9.208;2024-02-23T09:01:13;6.90;99.90
18091;DHT22;9172;49.948;9.208;2024-02-23T09:03:42;6.90;99.90
18091;DHT22;9172;49.948;9.208;2024-02-23T09:06:10;7.00;99.90
18091;DHT22;9172;49.948;9.208;2024-02-23T09:08:39;7.10;99.90
18091;DHT22;9172;49.948;9.208;2024-02-23T09:11:08;7.20;99.90
18091;DHT22;9172;49.948;9.208;2024-02-23T09:13:38;7.20;99.90
18091;DHT22;9172;49.948;9.208;2024-02-23T09:16:09;7.10;99.90
18091;DHT22;9172;49.948;9.208;2024-02-23T09:18:37;7.10;99.90
18091;DHT22;9172;49.948;9.208;2024-02-23T09:21:06;7.10;99.90
18091;DHT22;9172;49.948;9.208;2024-02-23T09:23:34;7.20;99.90
18091;DHT22;9172;49.948;9.208;2024-02-23T09:26:08;7.20;99.90
18091;DHT22;9172;49.948;9.208;2024-02-23T09:28:39;7.20;99.90
18091;DHT22;9172;49.948;9.208;2024-02-23T09:31:09;7.20;99.90
18091;DHT22;9172;49.948;9.208;2024-02-23T09:33:38;7.10;99.90
18091;DHT22;9172;49.948;9.208;2024-02-23T09:36:07;7.00;99.90
18091;DHT22;9172;49.948;9.208;2024-02-23T09:38:37;7.10;99.90
18091;DHT22;9172;49.948;9.208;2024-02-23T09:41:08;7.20;99.90
18091;DHT22;9172;49.948;9.208;2024-02-23T09:43:38;7.30;99.90
18091;DHT22;9172;49.948;9.208;2024-02-23T09:46:07;7.40;99.90
18091;DHT22;9172;49.948;9.208;2024-02-23T09:48:36;7.50;99.90
18091;DHT22;9172;49.948;9.208;2024-02-23T09:51:06;7.50;99.90
18091;DHT22;9172;49.948;9.208;2024-02-23T09:56:13;7.60;99.90
18091;DHT22;9172;49.948;9.208;2024-02-23T09:58:45;7.70;99.90
18091;DHT22;9172;49.948;9.208;2024-02-23T10:01:18;7.70;99.90
18091;DHT22;9172;49.948;9.208;2024-02-23T10:03:47;7.70;99.90
18091;DHT22;9172;49.948;9.208;2024-02-23T10:06:16;7.70;99.90
18091;DHT22;9172;49.948;9.208;2024-02-23T10:08:45;7.70;99.90
18091;DHT22;9172;49.948;9.208;2024-02-23T10:11:13;7.70;99.90
18091;DHT22;9172;49.948;9.208;2024-02-23T10:13:42;7.70;99.90
18091;DHT22;9172;49.948;9.208;2024-02-23T10:16:11;7.80;99.90
18091;DHT22;9172;49.948;9.208;2024-02-23T10:18:39;7.90;99.90
18091;DHT22;9172;49.948;9.208;2024-02-23T10:21:08;7.90;99.90
18091;DHT22;9172;49.948;9.208;2024-02-23T10:23:36;7.80;99.90
18091;DHT22;9172;49.948;9.208;2024-02-23T10:26:06;7.70;99.90
18091;DHT22;9172;49.948;9.208;2024-02-23T10:28:36;7.70;99.90
18091;DHT22;9172;49.948;9.208;2024-02-23T10:31:05;7.50;99.90
18091;DHT22;9172;49.948;9.208;2024-02-23T10:33:35;7.50;99.90
18091;DHT22;9172;49.948;9.208;2024-02-23T10:36:06;7.50;99.90
18091;DHT22;9172;49.948;9.208;2024-02-23T10:41:17;7.50;99.90
18091;DHT22;9172;49.948;9.208;2024-02-23T10:43:47;7.50;99.90
18091;DHT22;9172;49.948;9.208;2024-02-23T10:46:16;7.50;99.90
18091;DHT22;9172;49.948;9.208;2024-02-23T10:48:47;7.50;99.90
18091;DHT22;9172;49.948;9.208;2024-02-23T10:51:16;7.50;99.90
18091;DHT22;9172;49.948;9.208;2024-02-23T10:53:46;7.50;99.90
18091;DHT22;9172;49.948;9.208;2024-02-23T10:56:15;7.50;99.90
18091;DHT22;9172;49.948;9.208;2024-02-23T10:58:43;7.40;99.90
18091;DHT22;9172;49.948;9.208;2024-02-23T11:01:14;7.50;99.90
18091;DHT22;9172;49.948;9.208;2024-02-23T11:03:44;7.50;99.90
18091;DHT22;9172;49.948;9.208;2024-02-23T11:06:16;7.50;99.90
18091;DHT22;9172;49.948;9.208;2024-02-23T11:08:46;7.50;99.90
18091;DHT22;9172;49.948;9.208;2024-02-23T11:11:17;7.60;99.90
18091;DHT22;9172;49.948;9.208;2024-02-23T11:13:46;7.60;99.90
18091;DHT22;9172;49.948;9.208;2024-02-23T11:19:08;7.60;99.90
18091;DHT22;9172;49.948;9.208;2024-02-23T11:21:39;7.60;99.90
18091;DHT22;9172;49.948;9.208;2024-02-23T11:24:08;7.70;99.90
18091;DHT22;9172;49.948;9.208;2024-02-23T11:26:38;7.70;99.90
18091;DHT22;9172;49.948;9.208;2024-02-23T11:29:11;7.80;99.90
18091;DHT22;9172;49.948;9.208;2024-02-23T11:31:46;7.90;99.90
18091;DHT22;9172;49.948;9.208;2024-02-23T11:34:22;7.90;99.90
18091;DHT22;9172;49.948;9.208;2024-02-23T11:36:52;8.00;99.90
18091;DHT22;9172;49.948;9.208;2024-02-23T11:39:21;8.10;99.90
18091;DHT22;9172;49.948;9.208;2024-02-23T11:41:50;8.10;99.90
18091;DHT22;9172;49.948;9.208;2024-02-23T11:44:18;8.10;99.90
18091;DHT22;9172;49.948;9.208;2024-02-23T11:46:47;8.20;99.90
18091;DHT22;9172;49.948;9.208;2024-02-23T11:49:16;8.10;99.90
18091;DHT22;9172;49.948;9.208;2024-02-23T11:51:44;8.10;99.90
18091;DHT22;9172;49.948;9.208;2024-02-23T11:54:13;8.10;99.90
18091;DHT22;9172;49.948;9.208;2024-02-23T11:56:42;8.10;99.90
18091;DHT22;9172;49.948;9.208;2024-02-23T11:59:11;8.10;99.90
18091;DHT22;9172;49.948;9.208;2024-02-23T12:01:40;8.10;99.90
18091;DHT22;9172;49.948;9.208;2024-02-23T12:04:08;8.20;99.90
18091;DHT22;9172;49.948;9.208;2024-02-23T12:06:37;8.20;99.90
18091;DHT22;9172;49.948;9.208;2024-02-23T12:09:06;8.20;99.90
18091;DHT22;9172;49.948;9.208;2024-02-23T12:11:34;8.20;99.90
18091;DHT22;9172;49.948;9.208;2024-02-23T12:14:03;8.20;99.90
18091;DHT22;9172;49.948;9.208;2024-02-23T12:16:34;8.20;99.90
18091;DHT22;9172;49.948;9.208;2024-02-23T12:19:03;8.20;99.90
18091;DHT22;9172;49.948;9.208;2024-02-23T12:21:34;8.20;99.90
18091;DHT22;9172;49.948;9.208;2024-02-23T12:24:06;8.20;99.90
18091;DHT22;9172;49.948;9.208;2024-02-23T12:26:35;8.20;99.90
18091;DHT22;9172;49.948;9.208;2024-02-23T12:29:03;8.10;99.90
18091;DHT22;9172;49.948;9.208;2024-02-23T12:31:33;8.10;99.90
18091;DHT22;9172;49.948;9.208;2024-02-23T12:34:02;8.10;99.90
18091;DHT22;9172;49.948;9.208;2024-02-23T12:36:30;8.10;99.90
18091;DHT22;9172;49.948;9.208;2024-02-23T12:39:01;8.10;99.90
18091;DHT22;9172;49.948;9.208;2024-02-23T12:41:29;8.10;99.90
18091;DHT22;9172;49.948;9.208;2024-02-23T12:43:58;8.20;99.90
18091;DHT22;9172;49.948;9.208;2024-02-23T12:46:26;8.20;99.90
18091;DHT22;9172;49.948;9.208;2024-02-23T12:48:55;8.30;99.90
18091;DHT22;9172;49.948;9.208;2024-02-23T12:51:26;8.30;99.90
18091;DHT22;9172;49.948;9.208;2024-02-23T12:53:55;8.30;99.90
18091;DHT22;9172;49.948;9.208;2024-02-23T12:56:23;8.30;99.90
18091;DHT22;9172;49.948;9.208;2024-02-23T12:58:52;8.30;99.90
18091;DHT22;9172;49.948;9.208;2024-02-23T13:01:22;8.40;99.90
18091;DHT22;9172;49.948;9.208;2024-02-23T13:03:51;8.40;99.90
18091;DHT22;9172;49.948;9.208;2024-02-23T13:06:20;8.40;99.90
18091;DHT22;9172;49.948;9.208;2024-02-23T13:08:49;8.30;99.90
18091;DHT22;9172;49.948;9.208;2024-02-23T13:11:17;8.40;99.90
18091;DHT22;9172;49.948;9.208;2024-02-23T13:13:46;8.40;99.90
18091;DHT22;9172;49.948;9.208;2024-02-23T13:16:15;8.40;99.90
18091;DHT22;9172;49.948;9.208;2024-02-23T13:18:43;8.50;99.90
18091;DHT22;9172;49.948;9.208;2024-02-23T13:21:14;8.60;99.90
18091;DHT22;9172;49.948;9.208;2024-02-23T13:23:42;8.60;99.90
18091;DHT22;9172;49.948;9.208;2024-02-23T13:26:11;8.60;99.90
18091;DHT22;9172;49.948;9.208;2024-02-23T13:28:42;8.60;99.90
18091;DHT22;9172;49.948;9.208;2024-02-23T13:33:48;8.60;99.90
18091;DHT22;9172;49.948;9.208;2024-02-23T13:36:16;8.60;99.90
18091;DHT22;9172;49.948;9.208;2024-02-23T13:38:45;8.50;99.90
18091;DHT22;9172;49.948;9.208;2024-02-23T13:41:13;8.50;99.90
18091;DHT22;9172;49.948;9.208;2024-02-23T13:43:42;8.50;99.90
18091;DHT22;9172;49.948;9.208;2024-02-23T13:46:10;8.50;99.90
18091;DHT22;9172;49.948;9.208;2024-02-23T13:48:39;8.50;99.90
18091;DHT22;9172;49.948;9.208;2024-02-23T13:51:07;8.50;99.90
18091;DHT22;9172;49.948;9.208;2024-02-23T13:53:36;8.50;99.90
18091;DHT22;9172;49.948;9.208;2024-02-23T13:56:05;8.50;99.90
18091;DHT22;9172;49.948;9.208;2024-02-23T13:58:34;8.50;99.90
18091;DHT22;9172;49.948;9.208;2024-02-23T14:01:02;8.50;99.90
18091;DHT22;9172;49.948;9.208;2024-02-23T14:03:31;8.40;99.90
18091;DHT22;9172;49.948;9.208;2024-02-23T14:06:00;8.40;99.90
18091;DHT22;9172;49.948;9.208;2024-02-23T14:08:29;8.40;99.90
18091;DHT22;9172;49.948;9.208;2024-02-23T14:10:57;8.40;99.90
18091;DHT22;9172;49.948;9.208;2024-02-23T14:13:26;8.30;99.90
18091;DHT22;9172;49.948;9.208;2024-02-23T14:15:54;8.30;99.90
18091;DHT22;9172;49.948;9.208;2024-02-23T14:18:23;8.20;99.90
18091;DHT22;9172;49.948;9.208;2024-02-23T14:20:51;8.20;99.90
18091;DHT22;9172;49.948;9.208;2024-02-23T14:23:20;8.20;99.90
18091;DHT22;9172;49.948;9.208;2024-02-23T14:25:48;8.10;99.90
18091;DHT22;9172;49.948;9.208;2024-02-23T14:28:18;8.10;99.90
18091;DHT22;9172;49.948;9.208;2024-02-23T14:30:47;8.10;99.90
18091;DHT22;9172;49.948;9.208;2024-02-23T14:33:15;8.20;99.90
18091;DHT22;9172;49.948;9.208;2024-02-23T14:35:44;8.30;99.90
18091;DHT22;9172;49.948;9.208;2024-02-23T14:38:12;8.20;99.90
18091;DHT22;9172;49.948;9.208;2024-02-23T14:40:41;8.30;99.90
18091;DHT22;9172;49.948;9.208;2024-02-23T14:43:10;8.40;99.90
18091;DHT22;9172;49.948;9.208;2024-02-23T14:45:38;8.40;99.90
18091;DHT22;9172;49.948;9.208;2024-02-23T14:48:08;8.40;99.90
18091;DHT22;9172;49.948;9.208;2024-02-23T14:50:36;8.30;99.90
18091;DHT22;9172;49.948;9.208;2024-02-23T14:53:05;8.30;99.90
18091;DHT22;9172;49.948;9.208;2024-02-23T14:55:35;8.30;99.90
18091;DHT22;9172;49.948;9.208;2024-02-23T14:58:04;8.30;99.90
18091;DHT22;9172;49.948;9.208;2024-02-23T15:00:32;8.30;99.90
18091;DHT22;9172;49.948;9.208;2024-02-23T15:03:01;8.30;99.90
18091;DHT22;9172;49.948;9.208;2024-02-23T15:05:30;8.20;99.90
18091;DHT22;9172;49.948;9.208;2024-02-23T15:07:58;8.20;99.90
18091;DHT22;9172;49.948;9.208;2024-02-23T15:10:27;8.10;99.90
18091;DHT22;9172;49.948;9.208;2024-02-23T15:12:55;8.10;99.90
18091;DHT22;9172;49.948;9.208;2024-02-23T15:15:24;8.10;99.90
18091;DHT22;9172;49.948;9.208;2024-02-23T15:17:52;8.00;99.90
18091;DHT22;9172;49.948;9.208;2024-02-23T15:20:21;8.10;99.90
18091;DHT22;9172;49.948;9.208;2024-02-23T15:22:50;8.10;99.90
18091;DHT22;9172;49.948;9.208;2024-02-23T15:25:19;8.10;99.90
18091;DHT22;9172;49.948;9.208;2024-02-23T15:27:48;8.10;99.90
18091;DHT22;9172;49.948;9.208;2024-02-23T15:30:17;8.10;99.90
18091;DHT22;9172;49.948;9.208;2024-02-23T15:32:45;8.10;99.90
18091;DHT22;9172;49.948;9.208;2024-02-23T15:35:14;8.10;99.90
18091;DHT22;9172;49.948;9.208;2024-02-23T15:37:43;8.10;99.90
18091;DHT22;9172;49.948;9.208;2024-02-23T15:40:13;8.10;99.90
18091;DHT22;9172;49.948;9.208;2024-02-23T15:42:42;8.00;99.90
18091;DHT22;9172;49.948;9.208;2024-02-23T15:45:11;8.00;99.90
18091;DHT22;9172;49.948;9.208;2024-02-23T15:47:40;8.00;99.90
18091;DHT22;9172;49.948;9.208;2024-02-23T15:50:09;7.90;99.90
18091;DHT22;9172;49.948;9.208;2024-02-23T15:52:39;7.90;99.90
18091;DHT22;9172;49.948;9.208;2024-02-23T15:55:08;7.90;99.90
18091;DHT22;9172;49.948;9.208;2024-02-23T15:57:39;7.90;99.90
18091;DHT22;9172;49.948;9.208;2024-02-23T16:00:09;7.90;99.90
18091;DHT22;9172;49.948;9.208;2024-02-23T16:02:38;7.90;99.90
18091;DHT22;9172;49.948;9.208;2024-02-23T16:05:07;7.80;99.90
18091;DHT22;9172;49.948;9.208;2024-02-23T16:07:36;7.80;99.90
18091;DHT22;9172;49.948;9.208;2024-02-23T16:10:06;7.90;99.90
18091;DHT22;9172;49.948;9.208;2024-02-23T16:12:35;7.90;99.90
18091;DHT22;9172;49.948;9.208;2024-02-23T16:15:06;7.90;99.90
18091;DHT22;9172;49.948;9.208;2024-02-23T16:19:59;7.90;99.90
18091;DHT22;9172;49.948;9.208;2024-02-23T16:22:27;7.80;99.90
18091;DHT22;9172;49.948;9.208;2024-02-23T16:24:56;7.80;99.90
18091;DHT22;9172;49.948;9.208;2024-02-23T16:27:25;7.70;99.90
18091;DHT22;9172;49.948;9.208;2024-02-23T16:29:53;7.70;99.90
18091;DHT22;9172;49.948;9.208;2024-02-23T16:32:22;7.70;99.90
18091;DHT22;9172;49.948;9.208;2024-02-23T16:34:50;7.70;99.90